Bisbee, North Dakota
Current Conditions -  °F | °C
As of 7:35 AM on Saturday 20 Dec 2014 (Local Time) from K9D7 Reporting Station
Haze Haze  
Wind Chill: 23°   Ceiling: 200
Heat Index: 23°   Visibility: 0.75mi
Dew Point: 21°   Wind: 0mph
Humidity: 93%   Direction: NA
Pressure: 29.96"   Gusts: NA
Location:  48.63°N, 99.38°W
Report Text: K9D7 201335Z AUTO 00000KT 3/4SM BR OVC002 M05/M06 A2996 RMK AO2
Loading
Personal Weather Stations






























Interactive Weather Map New forecast layout! Learn more

10-Day Weather Forecast

Advertisements
Track Severe Weather on mobile